sensor_id;sensor_type;location;lat;lon;timestamp;P1;durP1;ratioP1;P2;durP2;ratioP2
27983;SDS011;15317;50.360;8.726;2023-04-16T00:04:51;10.77;;;9.77;;
27983;SDS011;15317;50.360;8.726;2023-04-16T00:09:55;11.13;;;10.00;;
27983;SDS011;15317;50.360;8.726;2023-04-16T00:14:58;9.77;;;8.87;;
27983;SDS011;15317;50.360;8.726;2023-04-16T00:20:02;9.80;;;8.90;;
27983;SDS011;15317;50.360;8.726;2023-04-16T00:25:06;9.63;;;8.83;;
27983;SDS011;15317;50.360;8.726;2023-04-16T00:30:10;9.80;;;8.90;;
27983;SDS011;15317;50.360;8.726;2023-04-16T00:35:14;9.70;;;8.90;;
27983;SDS011;15317;50.360;8.726;2023-04-16T00:40:18;10.10;;;9.20;;
27983;SDS011;15317;50.360;8.726;2023-04-16T00:45:21;10.40;;;9.40;;
27983;SDS011;15317;50.360;8.726;2023-04-16T00:50:25;11.67;;;10.43;;
27983;SDS011;15317;50.360;8.726;2023-04-16T00:55:28;9.97;;;9.07;;
27983;SDS011;15317;50.360;8.726;2023-04-16T01:00:31;10.03;;;9.03;;
27983;SDS011;15317;50.360;8.726;2023-04-16T01:05:36;10.57;;;9.57;;
27983;SDS011;15317;50.360;8.726;2023-04-16T01:10:40;10.47;;;9.47;;
27983;SDS011;15317;50.360;8.726;2023-04-16T01:15:43;10.70;;;9.70;;
27983;SDS011;15317;50.360;8.726;2023-04-16T01:20:48;10.87;;;9.80;;
27983;SDS011;15317;50.360;8.726;2023-04-16T01:25:51;11.17;;;10.10;;
27983;SDS011;15317;50.360;8.726;2023-04-16T01:30:54;11.43;;;10.43;;
27983;SDS011;15317;50.360;8.726;2023-04-16T01:35:59;10.77;;;9.77;;
27983;SDS011;15317;50.360;8.726;2023-04-16T01:41:02;10.53;;;9.53;;
27983;SDS011;15317;50.360;8.726;2023-04-16T01:46:11;10.80;;;9.80;;
27983;SDS011;15317;50.360;8.726;2023-04-16T01:51:17;11.83;;;10.63;;
27983;SDS011;15317;50.360;8.726;2023-04-16T01:56:20;10.87;;;9.87;;
27983;SDS011;15317;50.360;8.726;2023-04-16T02:01:23;11.47;;;10.47;;
27983;SDS011;15317;50.360;8.726;2023-04-16T02:06:28;10.80;;;9.80;;
27983;SDS011;15317;50.360;8.726;2023-04-16T02:11:32;11.03;;;10.03;;
27983;SDS011;15317;50.360;8.726;2023-04-16T02:16:35;11.23;;;10.23;;
27983;SDS011;15317;50.360;8.726;2023-04-16T02:21:39;10.90;;;9.90;;
27983;SDS011;15317;50.360;8.726;2023-04-16T02:26:43;10.90;;;10.00;;
27983;SDS011;15317;50.360;8.726;2023-04-16T02:31:47;11.10;;;10.10;;
27983;SDS011;15317;50.360;8.726;2023-04-16T02:36:52;11.20;;;10.20;;
27983;SDS011;15317;50.360;8.726;2023-04-16T02:41:56;12.23;;;11.03;;
27983;SDS011;15317;50.360;8.726;2023-04-16T02:47:00;11.97;;;10.87;;
27983;SDS011;15317;50.360;8.726;2023-04-16T02:52:05;12.50;;;11.33;;
27983;SDS011;15317;50.360;8.726;2023-04-16T02:57:08;13.27;;;12.03;;
27983;SDS011;15317;50.360;8.726;2023-04-16T03:02:11;13.53;;;12.33;;
27983;SDS011;15317;50.360;8.726;2023-04-16T03:07:16;14.30;;;13.00;;
27983;SDS011;15317;50.360;8.726;2023-04-16T03:12:19;13.50;;;12.30;;
27983;SDS011;15317;50.360;8.726;2023-04-16T03:17:22;14.00;;;12.70;;
27983;SDS011;15317;50.360;8.726;2023-04-16T03:22:27;14.00;;;12.60;;
27983;SDS011;15317;50.360;8.726;2023-04-16T03:27:30;13.93;;;12.63;;
27983;SDS011;15317;50.360;8.726;2023-04-16T03:32:33;13.80;;;12.50;;
27983;SDS011;15317;50.360;8.726;2023-04-16T03:37:38;12.70;;;11.50;;
27983;SDS011;15317;50.360;8.726;2023-04-16T03:42:41;13.07;;;11.87;;
27983;SDS011;15317;50.360;8.726;2023-04-16T03:47:44;12.93;;;11.77;;
27983;SDS011;15317;50.360;8.726;2023-04-16T03:52:50;13.03;;;11.67;;
27983;SDS011;15317;50.360;8.726;2023-04-16T03:57:53;13.33;;;12.13;;
27983;SDS011;15317;50.360;8.726;2023-04-16T04:02:56;14.30;;;12.90;;
27983;SDS011;15317;50.360;8.726;2023-04-16T04:08:02;13.87;;;12.57;;
27983;SDS011;15317;50.360;8.726;2023-04-16T04:13:05;14.53;;;13.13;;
27983;SDS011;15317;50.360;8.726;2023-04-16T04:18:09;14.23;;;12.83;;
27983;SDS011;15317;50.360;8.726;2023-04-16T04:23:14;12.57;;;11.47;;
27983;SDS011;15317;50.360;8.726;2023-04-16T04:28:17;13.33;;;12.13;;
27983;SDS011;15317;50.360;8.726;2023-04-16T04:33:20;12.33;;;11.23;;
27983;SDS011;15317;50.360;8.726;2023-04-16T04:38:25;11.53;;;10.43;;
27983;SDS011;15317;50.360;8.726;2023-04-16T04:43:29;11.60;;;10.50;;
27983;SDS011;15317;50.360;8.726;2023-04-16T04:48:32;10.87;;;9.87;;
27983;SDS011;15317;50.360;8.726;2023-04-16T04:53:37;11.07;;;9.97;;
27983;SDS011;15317;50.360;8.726;2023-04-16T04:58:40;11.17;;;9.87;;
27983;SDS011;15317;50.360;8.726;2023-04-16T05:03:44;11.47;;;10.37;;
27983;SDS011;15317;50.360;8.726;2023-04-16T05:08:48;11.83;;;10.70;;
27983;SDS011;15317;50.360;8.726;2023-04-16T05:13:52;13.27;;;12.07;;
27983;SDS011;15317;50.360;8.726;2023-04-16T05:18:55;13.33;;;12.10;;
27983;SDS011;15317;50.360;8.726;2023-04-16T05:23:59;12.80;;;11.43;;
27983;SDS011;15317;50.360;8.726;2023-04-16T05:29:03;12.87;;;11.67;;
27983;SDS011;15317;50.360;8.726;2023-04-16T05:34:06;12.87;;;11.73;;
27983;SDS011;15317;50.360;8.726;2023-04-16T05:39:10;12.57;;;11.40;;
27983;SDS011;15317;50.360;8.726;2023-04-16T05:44:13;12.50;;;11.30;;
27983;SDS011;15317;50.360;8.726;2023-04-16T05:49:17;11.93;;;10.83;;
27983;SDS011;15317;50.360;8.726;2023-04-16T05:54:21;12.43;;;11.33;;
27983;SDS011;15317;50.360;8.726;2023-04-16T05:59:25;12.87;;;11.67;;
27983;SDS011;15317;50.360;8.726;2023-04-16T06:04:28;11.10;;;10.07;;
27983;SDS011;15317;50.360;8.726;2023-04-16T06:09:34;11.57;;;10.57;;
27983;SDS011;15317;50.360;8.726;2023-04-16T06:14:38;12.57;;;11.30;;
27983;SDS011;15317;50.360;8.726;2023-04-16T06:19:41;12.27;;;11.17;;
27983;SDS011;15317;50.360;8.726;2023-04-16T06:24:45;11.60;;;10.60;;
27983;SDS011;15317;50.360;8.726;2023-04-16T06:29:48;13.20;;;12.00;;
27983;SDS011;15317;50.360;8.726;2023-04-16T06:34:52;12.87;;;11.67;;
27983;SDS011;15317;50.360;8.726;2023-04-16T06:39:56;14.20;;;12.90;;
27983;SDS011;15317;50.360;8.726;2023-04-16T06:44:59;13.50;;;12.10;;
27983;SDS011;15317;50.360;8.726;2023-04-16T06:50:03;13.63;;;12.33;;
27983;SDS011;15317;50.360;8.726;2023-04-16T06:55:08;13.87;;;12.53;;
27983;SDS011;15317;50.360;8.726;2023-04-16T07:00:12;14.53;;;13.23;;
27983;SDS011;15317;50.360;8.726;2023-04-16T07:05:15;14.00;;;12.70;;
27983;SDS011;15317;50.360;8.726;2023-04-16T07:10:19;14.07;;;12.77;;
27983;SDS011;15317;50.360;8.726;2023-04-16T07:15:23;14.50;;;13.10;;
27983;SDS011;15317;50.360;8.726;2023-04-16T07:20:26;14.27;;;12.97;;
27983;SDS011;15317;50.360;8.726;2023-04-16T07:25:30;13.70;;;12.47;;
27983;SDS011;15317;50.360;8.726;2023-04-16T07:30:33;13.10;;;12.00;;
27983;SDS011;15317;50.360;8.726;2023-04-16T07:35:37;14.30;;;13.00;;
27983;SDS011;15317;50.360;8.726;2023-04-16T07:40:41;12.90;;;11.80;;
27983;SDS011;15317;50.360;8.726;2023-04-16T07:45:44;13.13;;;11.93;;
27983;SDS011;15317;50.360;8.726;2023-04-16T07:50:47;12.60;;;11.50;;
27983;SDS011;15317;50.360;8.726;2023-04-16T07:55:52;11.83;;;10.83;;
27983;SDS011;15317;50.360;8.726;2023-04-16T08:00:55;13.33;;;12.07;;
27983;SDS011;15317;50.360;8.726;2023-04-16T08:05:58;13.27;;;12.17;;
27983;SDS011;15317;50.360;8.726;2023-04-16T08:11:03;13.07;;;11.87;;
27983;SDS011;15317;50.360;8.726;2023-04-16T08:16:07;13.23;;;12.03;;
27983;SDS011;15317;50.360;8.726;2023-04-16T08:21:10;12.90;;;11.80;;
27983;SDS011;15317;50.360;8.726;2023-04-16T08:26:14;14.10;;;12.90;;
27983;SDS011;15317;50.360;8.726;2023-04-16T08:31:18;12.80;;;11.70;;
27983;SDS011;15317;50.360;8.726;2023-04-16T08:36:21;13.30;;;12.10;;
27983;SDS011;15317;50.360;8.726;2023-04-16T08:41:25;13.67;;;12.47;;
27983;SDS011;15317;50.360;8.726;2023-04-16T08:46:32;12.53;;;11.47;;
27983;SDS011;15317;50.360;8.726;2023-04-16T08:51:39;12.80;;;11.70;;
27983;SDS011;15317;50.360;8.726;2023-04-16T08:56:46;11.97;;;11.00;;
27983;SDS011;15317;50.360;8.726;2023-04-16T09:01:50;12.40;;;11.37;;
27983;SDS011;15317;50.360;8.726;2023-04-16T09:06:55;11.80;;;10.90;;
27983;SDS011;15317;50.360;8.726;2023-04-16T09:11:59;12.23;;;11.13;;
27983;SDS011;15317;50.360;8.726;2023-04-16T09:17:02;12.33;;;11.33;;
27983;SDS011;15317;50.360;8.726;2023-04-16T09:22:08;12.23;;;11.23;;
27983;SDS011;15317;50.360;8.726;2023-04-16T09:27:12;12.57;;;11.47;;
27983;SDS011;15317;50.360;8.726;2023-04-16T09:32:16;11.63;;;10.60;;
27983;SDS011;15317;50.360;8.726;2023-04-16T09:37:19;12.37;;;11.27;;
27983;SDS011;15317;50.360;8.726;2023-04-16T09:42:25;13.17;;;12.07;;
27983;SDS011;15317;50.360;8.726;2023-04-16T09:47:39;12.00;;;10.93;;
27983;SDS011;15317;50.360;8.726;2023-04-16T09:52:44;13.17;;;12.07;;
27983;SDS011;15317;50.360;8.726;2023-04-16T09:57:58;12.57;;;11.57;;
27983;SDS011;15317;50.360;8.726;2023-04-16T10:03:03;13.23;;;12.13;;
27983;SDS011;15317;50.360;8.726;2023-04-16T10:08:11;13.50;;;12.40;;
27983;SDS011;15317;50.360;8.726;2023-04-16T10:13:16;13.70;;;12.60;;
27983;SDS011;15317;50.360;8.726;2023-04-16T10:18:19;13.57;;;12.27;;
27983;SDS011;15317;50.360;8.726;2023-04-16T10:23:23;12.27;;;11.27;;
27983;SDS011;15317;50.360;8.726;2023-04-16T10:28:29;13.57;;;12.43;;
27983;SDS011;15317;50.360;8.726;2023-04-16T10:33:32;14.50;;;13.30;;
27983;SDS011;15317;50.360;8.726;2023-04-16T10:38:37;13.27;;;12.17;;
27983;SDS011;15317;50.360;8.726;2023-04-16T10:43:44;15.03;;;13.63;;
27983;SDS011;15317;50.360;8.726;2023-04-16T10:54:39;16.23;;;14.80;;
27983;SDS011;15317;50.360;8.726;2023-04-16T10:59:44;14.40;;;13.10;;
27983;SDS011;15317;50.360;8.726;2023-04-16T11:04:48;14.97;;;13.57;;
27983;SDS011;15317;50.360;8.726;2023-04-16T11:09:55;15.27;;;13.97;;
27983;SDS011;15317;50.360;8.726;2023-04-16T11:15:02;15.73;;;14.33;;
27983;SDS011;15317;50.360;8.726;2023-04-16T11:20:08;14.13;;;12.93;;
27983;SDS011;15317;50.360;8.726;2023-04-16T11:25:21;16.13;;;14.83;;
27983;SDS011;15317;50.360;8.726;2023-04-16T11:30:28;17.37;;;15.87;;
27983;SDS011;15317;50.360;8.726;2023-04-16T11:35:32;20.63;;;18.87;;
27983;SDS011;15317;50.360;8.726;2023-04-16T11:40:35;20.17;;;18.33;;
27983;SDS011;15317;50.360;8.726;2023-04-16T11:45:41;21.80;;;19.97;;
27983;SDS011;15317;50.360;8.726;2023-04-16T11:50:58;21.73;;;19.93;;
27983;SDS011;15317;50.360;8.726;2023-04-16T11:56:01;17.40;;;15.90;;
27983;SDS011;15317;50.360;8.726;2023-04-16T12:01:08;23.83;;;21.83;;
27983;SDS011;15317;50.360;8.726;2023-04-16T12:06:11;21.77;;;19.97;;
27983;SDS011;15317;50.360;8.726;2023-04-16T12:11:14;24.00;;;21.90;;
27983;SDS011;15317;50.360;8.726;2023-04-16T12:16:19;25.13;;;23.00;;
27983;SDS011;15317;50.360;8.726;2023-04-16T12:28:00;24.60;;;22.30;;
27983;SDS011;15317;50.360;8.726;2023-04-16T12:33:15;21.43;;;19.63;;
27983;SDS011;15317;50.360;8.726;2023-04-16T12:38:20;22.60;;;20.77;;
27983;SDS011;15317;50.360;8.726;2023-04-16T12:43:25;20.83;;;19.03;;
27983;SDS011;15317;50.360;8.726;2023-04-16T12:48:30;20.43;;;18.83;;
27983;SDS011;15317;50.360;8.726;2023-04-16T12:53:34;18.90;;;17.40;;
27983;SDS011;15317;50.360;8.726;2023-04-16T12:58:37;16.77;;;15.47;;
27983;SDS011;15317;50.360;8.726;2023-04-16T13:03:42;15.77;;;14.40;;
27983;SDS011;15317;50.360;8.726;2023-04-16T13:08:45;15.23;;;13.83;;
27983;SDS011;15317;50.360;8.726;2023-04-16T13:13:48;13.80;;;12.70;;
27983;SDS011;15317;50.360;8.726;2023-04-16T13:18:52;13.73;;;12.73;;
27983;SDS011;15317;50.360;8.726;2023-04-16T13:23:56;15.27;;;14.07;;
27983;SDS011;15317;50.360;8.726;2023-04-16T13:41:08;13.17;;;12.13;;
27983;SDS011;15317;50.360;8.726;2023-04-16T13:46:11;12.40;;;11.40;;
27983;SDS011;15317;50.360;8.726;2023-04-16T13:51:14;11.97;;;11.07;;
27983;SDS011;15317;50.360;8.726;2023-04-16T13:56:19;11.47;;;10.57;;
27983;SDS011;15317;50.360;8.726;2023-04-16T14:01:22;12.37;;;11.37;;
27983;SDS011;15317;50.360;8.726;2023-04-16T14:06:25;11.50;;;10.63;;
27983;SDS011;15317;50.360;8.726;2023-04-16T14:11:29;12.00;;;11.10;;
27983;SDS011;15317;50.360;8.726;2023-04-16T14:16:33;11.60;;;10.70;;
27983;SDS011;15317;50.360;8.726;2023-04-16T14:21:36;10.80;;;10.00;;
27983;SDS011;15317;50.360;8.726;2023-04-16T14:26:40;11.70;;;10.80;;
27983;SDS011;15317;50.360;8.726;2023-04-16T14:31:44;10.73;;;9.93;;
27983;SDS011;15317;50.360;8.726;2023-04-16T14:36:47;9.97;;;9.17;;
27983;SDS011;15317;50.360;8.726;2023-04-16T14:41:53;10.27;;;9.47;;
27983;SDS011;15317;50.360;8.726;2023-04-16T14:46:57;11.00;;;10.10;;
27983;SDS011;15317;50.360;8.726;2023-04-16T14:52:00;11.13;;;10.10;;
27983;SDS011;15317;50.360;8.726;2023-04-16T14:57:07;11.07;;;10.17;;
27983;SDS011;15317;50.360;8.726;2023-04-16T15:02:10;10.80;;;9.90;;
27983;SDS011;15317;50.360;8.726;2023-04-16T15:07:13;10.17;;;9.40;;
27983;SDS011;15317;50.360;8.726;2023-04-16T15:12:18;10.23;;;9.43;;
27983;SDS011;15317;50.360;8.726;2023-04-16T15:17:21;10.40;;;9.60;;
27983;SDS011;15317;50.360;8.726;2023-04-16T15:22:24;10.10;;;9.30;;
27983;SDS011;15317;50.360;8.726;2023-04-16T15:27:29;11.27;;;10.37;;
27983;SDS011;15317;50.360;8.726;2023-04-16T15:32:32;12.60;;;11.60;;
27983;SDS011;15317;50.360;8.726;2023-04-16T15:37:35;12.27;;;11.27;;
27983;SDS011;15317;50.360;8.726;2023-04-16T15:42:40;13.40;;;12.30;;
27983;SDS011;15317;50.360;8.726;2023-04-16T15:47:44;13.03;;;12.00;;
27983;SDS011;15317;50.360;8.726;2023-04-16T15:52:51;13.80;;;12.70;;
27983;SDS011;15317;50.360;8.726;2023-04-16T15:57:56;13.57;;;12.30;;
27983;SDS011;15317;50.360;8.726;2023-04-16T16:02:59;12.80;;;11.80;;
27983;SDS011;15317;50.360;8.726;2023-04-16T16:08:03;12.47;;;11.53;;
27983;SDS011;15317;50.360;8.726;2023-04-16T16:13:08;12.17;;;11.17;;
27983;SDS011;15317;50.360;8.726;2023-04-16T16:18:13;12.80;;;11.80;;
27983;SDS011;15317;50.360;8.726;2023-04-16T16:23:17;14.20;;;13.10;;
27983;SDS011;15317;50.360;8.726;2023-04-16T16:28:21;14.03;;;12.93;;
27983;SDS011;15317;50.360;8.726;2023-04-16T16:33:25;13.67;;;12.60;;
27983;SDS011;15317;50.360;8.726;2023-04-16T16:38:29;12.73;;;11.63;;
27983;SDS011;15317;50.360;8.726;2023-04-16T16:43:34;13.80;;;12.60;;
27983;SDS011;15317;50.360;8.726;2023-04-16T16:48:37;12.93;;;11.93;;
27983;SDS011;15317;50.360;8.726;2023-04-16T16:53:40;13.30;;;12.10;;
27983;SDS011;15317;50.360;8.726;2023-04-16T16:58:45;13.47;;;12.37;;
27983;SDS011;15317;50.360;8.726;2023-04-16T17:03:48;13.40;;;12.30;;
27983;SDS011;15317;50.360;8.726;2023-04-16T17:08:51;13.40;;;12.30;;
27983;SDS011;15317;50.360;8.726;2023-04-16T17:13:56;13.03;;;11.83;;
27983;SDS011;15317;50.360;8.726;2023-04-16T17:18:59;12.80;;;11.70;;
27983;SDS011;15317;50.360;8.726;2023-04-16T17:24:02;11.70;;;10.80;;
27983;SDS011;15317;50.360;8.726;2023-04-16T17:29:07;12.73;;;11.63;;
27983;SDS011;15317;50.360;8.726;2023-04-16T17:34:10;11.93;;;10.83;;
27983;SDS011;15317;50.360;8.726;2023-04-16T17:39:13;13.27;;;12.17;;
27983;SDS011;15317;50.360;8.726;2023-04-16T17:44:18;15.80;;;14.50;;
27983;SDS011;15317;50.360;8.726;2023-04-16T17:49:21;13.87;;;12.67;;
27983;SDS011;15317;50.360;8.726;2023-04-16T17:54:24;14.73;;;13.53;;
27983;SDS011;15317;50.360;8.726;2023-04-16T17:59:29;14.00;;;12.83;;
27983;SDS011;15317;50.360;8.726;2023-04-16T18:04:32;18.20;;;16.60;;
27983;SDS011;15317;50.360;8.726;2023-04-16T18:09:35;16.87;;;15.37;;
27983;SDS011;15317;50.360;8.726;2023-04-16T18:14:40;16.40;;;14.93;;
27983;SDS011;15317;50.360;8.726;2023-04-16T18:19:45;17.17;;;15.67;;
27983;SDS011;15317;50.360;8.726;2023-04-16T18:24:48;18.77;;;17.07;;
27983;SDS011;15317;50.360;8.726;2023-04-16T18:29:52;17.77;;;16.27;;
27983;SDS011;15317;50.360;8.726;2023-04-16T18:34:56;20.27;;;18.47;;
27983;SDS011;15317;50.360;8.726;2023-04-16T18:39:59;20.40;;;18.27;;
27983;SDS011;15317;50.360;8.726;2023-04-16T18:45:04;19.17;;;17.47;;
27983;SDS011;15317;50.360;8.726;2023-04-16T18:50:14;20.07;;;18.27;;
27983;SDS011;15317;50.360;8.726;2023-04-16T18:55:17;24.60;;;22.20;;
27983;SDS011;15317;50.360;8.726;2023-04-16T19:00:22;23.00;;;20.87;;
27983;SDS011;15317;50.360;8.726;2023-04-16T19:05:25;23.87;;;21.63;;
27983;SDS011;15317;50.360;8.726;2023-04-16T19:10:28;19.17;;;17.37;;
27983;SDS011;15317;50.360;8.726;2023-04-16T19:15:32;22.80;;;20.60;;
27983;SDS011;15317;50.360;8.726;2023-04-16T19:20:36;23.40;;;21.30;;
27983;SDS011;15317;50.360;8.726;2023-04-16T19:25:40;24.87;;;22.57;;
27983;SDS011;15317;50.360;8.726;2023-04-16T19:30:44;21.47;;;19.47;;
27983;SDS011;15317;50.360;8.726;2023-04-16T19:35:47;21.50;;;19.60;;
27983;SDS011;15317;50.360;8.726;2023-04-16T19:40:50;19.30;;;17.60;;
27983;SDS011;15317;50.360;8.726;2023-04-16T19:45:55;23.17;;;21.07;;
27983;SDS011;15317;50.360;8.726;2023-04-16T19:50:59;23.60;;;21.23;;
27983;SDS011;15317;50.360;8.726;2023-04-16T19:56:03;22.77;;;20.47;;
27983;SDS011;15317;50.360;8.726;2023-04-16T20:01:08;23.27;;;21.07;;
27983;SDS011;15317;50.360;8.726;2023-04-16T20:06:12;22.70;;;20.60;;
27983;SDS011;15317;50.360;8.726;2023-04-16T20:11:15;24.00;;;21.80;;
27983;SDS011;15317;50.360;8.726;2023-04-16T20:16:20;21.10;;;19.10;;
27983;SDS011;15317;50.360;8.726;2023-04-16T20:21:24;21.97;;;19.87;;
27983;SDS011;15317;50.360;8.726;2023-04-16T20:26:29;22.50;;;20.40;;
27983;SDS011;15317;50.360;8.726;2023-04-16T20:31:35;21.57;;;19.63;;
27983;SDS011;15317;50.360;8.726;2023-04-16T20:36:38;24.40;;;22.07;;
27983;SDS011;15317;50.360;8.726;2023-04-16T20:41:42;23.73;;;21.50;;
27983;SDS011;15317;50.360;8.726;2023-04-16T20:46:47;25.40;;;22.87;;
27983;SDS011;15317;50.360;8.726;2023-04-16T20:51:51;24.30;;;21.90;;
27983;SDS011;15317;50.360;8.726;2023-04-16T20:56:55;26.33;;;23.73;;
27983;SDS011;15317;50.360;8.726;2023-04-16T21:02:00;27.87;;;25.20;;
27983;SDS011;15317;50.360;8.726;2023-04-16T21:07:03;24.07;;;21.83;;
27983;SDS011;15317;50.360;8.726;2023-04-16T21:12:06;26.10;;;23.60;;
27983;SDS011;15317;50.360;8.726;2023-04-16T21:17:11;28.63;;;25.90;;
27983;SDS011;15317;50.360;8.726;2023-04-16T21:22:14;30.53;;;27.43;;
27983;SDS011;15317;50.360;8.726;2023-04-16T21:27:17;28.93;;;26.17;;
27983;SDS011;15317;50.360;8.726;2023-04-16T21:32:21;28.67;;;25.97;;
27983;SDS011;15317;50.360;8.726;2023-04-16T21:37:25;29.57;;;26.77;;
27983;SDS011;15317;50.360;8.726;2023-04-16T21:42:28;32.43;;;29.23;;
27983;SDS011;15317;50.360;8.726;2023-04-16T21:47:33;30.40;;;27.40;;
27983;SDS011;15317;50.360;8.726;2023-04-16T21:52:36;32.17;;;29.00;;
27983;SDS011;15317;50.360;8.726;2023-04-16T21:57:41;33.63;;;30.27;;
27983;SDS011;15317;50.360;8.726;2023-04-16T22:02:46;33.07;;;29.77;;
27983;SDS011;15317;50.360;8.726;2023-04-16T22:07:49;32.73;;;29.40;;
27983;SDS011;15317;50.360;8.726;2023-04-16T22:12:52;34.07;;;30.60;;
27983;SDS011;15317;50.360;8.726;2023-04-16T22:17:57;33.60;;;30.20;;
27983;SDS011;15317;50.360;8.726;2023-04-16T22:23:01;37.00;;;33.30;;
27983;SDS011;15317;50.360;8.726;2023-04-16T22:28:04;36.20;;;32.63;;
27983;SDS011;15317;50.360;8.726;2023-04-16T22:33:08;34.33;;;30.83;;
27983;SDS011;15317;50.360;8.726;2023-04-16T22:38:11;35.13;;;31.47;;
27983;SDS011;15317;50.360;8.726;2023-04-16T22:43:14;38.10;;;34.03;;
27983;SDS011;15317;50.360;8.726;2023-04-16T22:48:19;36.97;;;33.20;;
27983;SDS011;15317;50.360;8.726;2023-04-16T22:53:23;38.43;;;34.43;;
27983;SDS011;15317;50.360;8.726;2023-04-16T22:58:26;40.63;;;36.40;;
27983;SDS011;15317;50.360;8.726;2023-04-16T23:03:30;39.13;;;35.00;;
27983;SDS011;15317;50.360;8.726;2023-04-16T23:08:33;39.43;;;35.37;;
27983;SDS011;15317;50.360;8.726;2023-04-16T23:13:36;40.90;;;36.60;;
27983;SDS011;15317;50.360;8.726;2023-04-16T23:18:41;42.23;;;37.83;;
27983;SDS011;15317;50.360;8.726;2023-04-16T23:23:44;38.67;;;34.40;;
27983;SDS011;15317;50.360;8.726;2023-04-16T23:28:47;41.20;;;36.80;;
27983;SDS011;15317;50.360;8.726;2023-04-16T23:33:52;42.13;;;37.73;;
27983;SDS011;15317;50.360;8.726;2023-04-16T23:38:55;40.37;;;36.17;;
27983;SDS011;15317;50.360;8.726;2023-04-16T23:43:58;43.67;;;38.63;;
27983;SDS011;15317;50.360;8.726;2023-04-16T23:49:03;45.17;;;40.33;;
27983;SDS011;15317;50.360;8.726;2023-04-16T23:54:06;46.30;;;40.27;;
27983;SDS011;15317;50.360;8.726;2023-04-16T23:59:09;45.27;;;40.47;;
